Historyczne dane pomiarowe

Dodano dane terminowe – wersja testowa.

Dane z okresu 1951-2019

Wersja bazy: 1.34 [2019-03-16, lista zmian], aktualizacja planowana na 2019-04-15

Dane meteo z obszaru Polski uzyskane na podstawie danych udostępnionych przez Instytut Meteorologii i Gospodarki Wodnej – Państwowy Instytut Badawczy.

 

Wybierz Datę:    

       

TemperaturaWilgotnośćWiatrCiśnienieOpadyŚniegCzas trwania zjawisk
 Stacja t tx tn tng RH VA  wxwx mslp ppp RRR   cm mm wxwxwxwxwxwxwx
1987-08-14 13.2 18.5 4.8- 74.0- 4.0 1.3---- 0.0------------
1987-08-13 9.2 16.5 2.6- 77.5- 5.3 0.3---- 0.0------------
1987-08-12 10.1 17.0 3.2- 78.5- 2.3 0.7---- 0.0------------
1987-08-11 12.4 18.0 7.9- 73.8- 5.0 1.3---- 0.6------------
1987-08-10 14.0 16.5 10.4- 77.5- 8.0 0.7---- 14.9------------
1987-08-09 12.8 20.5 3.0- 70.8- 3.0 2.0---- 0.0------------
1987-08-08 12.1 17.5 6.0- 80.3- 3.0 0.7---- 0.0------------
1987-08-07 10.3 15.1 5.0- 79.0- 7.7 2.0---- 0.2------------
1987-08-06 9.8 15.1 8.0- 87.3- 6.7 1.0---- 4.4------------
1987-08-05 12.9 16.0 10.5- 77.8- 7.7 0.7---- 0.7------------
1987-08-04 13.6 19.0 8.3- 84.0- 5.3 2.0---- 7.5------------
1987-08-03 14.1 19.0 8.4- 73.0- 5.7 2.0---- 0.0------------
1987-08-02 13.9 18.5 13.0- 75.3- 7.0 1.0---- 0.9------------
1987-08-01 15.3 21.5 11.9- 77.5- 5.3 0.7---- 0.2------------
1987-07-31 16.6 22.5 10.4- 69.0- 7.0 1.7---- 7.9------------
1987-07-30 15.2 21.0 7.9- 68.5- 3.0 1.7---- 0.0------------
1987-07-29 12.8 17.8 9.9- 75.5- 5.3 0.0---- 0.0------------
1987-07-28 11.9 13.7 10.0- 86.8- 8.0 0.0---- 4.8------------
1987-07-27 11.9 17.0 8.4- 72.8- 4.7 0.7---- 2.3------------
1987-07-26 14.7 19.6 10.7- 90.8- 8.0 0.0---- 8.4------------
1987-07-25 17.0 22.4 15.4- 90.0- 4.7 1.0---- 3.8------------
1987-07-24 21.3 28.6 13.8- 71.5- 6.3 2.3---- 17.2------------
1987-07-23 20.1 28.0 12.8- 73.5- 4.3 0.7---- 0.0------------
1987-07-22 19.9 26.6 12.4- 79.3- 3.7 0.7---- 0.0------------
1987-07-21 21.9 29.0 13.8- 69.3- 3.7 1.0---- 0.0------------
1987-07-20 23.4 31.0 15.3- 64.0- 1.3 1.3---- 0.0------------
1987-07-19 22.9 30.4 14.2- 67.5- 0.3 1.0---- 0.0------------
1987-07-18 22.8 28.5 18.2- 73.3- 4.0 2.3---- 0.0------------
1987-07-17 19.7 27.5 11.4- 75.8- 5.0 2.7---- 1.0------------
1987-07-16 17.7 26.4 8.4- 75.5- 4.7 0.3---- 0.0------------
1987-07-15 14.4 23.0 5.0- 70.3- 0.0 0.7---- 0.0------------
1987-07-14 16.3 19.5 14.4- 67.5- 0.0 1.0---- 0.0------------
1987-07-13 18.2 23.0 15.2- 79.5- 7.0 1.3---- 0.0------------
1987-07-12 19.3 25.0 8.9- 59.5- 4.3 2.3---- 4.2------------
1987-07-11 14.1 22.0 5.0- 68.3- 2.3 1.0---- 0.0------------
1987-07-10 15.2 18.5 12.8- 66.0- 1.7 2.0---- 0.0------------
1987-07-09 18.5 26.0 13.3- 69.0- 4.7 2.7---- 13.0------------
1987-07-08 17.9 25.5 6.4- 55.3- 0.0 1.7---- 0.0------------
1987-07-07 14.7 24.8 4.0- 62.8- 0.0 0.0---- 0.0------------
1987-07-06 15.1 20.5 8.1- 67.8- 0.3 1.7---- 0.0------------
1987-07-05 14.3 19.0 11.1- 81.3- 7.7 1.7---- 0.5------------
1987-07-04 18.5 22.5 16.8- 64.3- 6.0 1.3---- 0.0------------
1987-07-03 19.0 22.4 16.2- 73.8- 7.3 0.3---- 0.0------------
1987-07-02 19.6 25.0 15.4- 87.0- 4.7 0.7---- 0.0------------
1987-07-01 21.9 28.5 13.2- 70.3- 0.0 1.7---- 0.0------------
1987-06-30 19.6 28.5 11.4- 75.5- 0.7 0.3---- 0.0------------
1987-06-29 18.9 24.0 13.3- 78.5- 2.3 1.0---- 0.0------------
1987-06-28 17.9 24.0 13.3- 76.3- 6.7 0.0---- 0.0------------
1987-06-27 17.9 24.0 14.3- 72.0- 4.0 1.7---- 6.0------------
1987-06-26 14.1 21.0 5.0- 71.3- 0.7 0.7---- 0.0------------
1987-06-25 13.1 18.0 9.9- 81.0- 7.3 0.0---- 6.0------------
1987-06-24 14.7 19.6 10.4- 83.5- 6.0 0.7---- 1.4------------
1987-06-23 14.8 19.4 12.4- 85.3- 7.7 0.0---- 0.0------------
1987-06-22 14.5 21.5 9.9- 81.8- 8.0 1.7---- 10.0------------
1987-06-21 12.9 21.4 5.0- 81.5- 3.3 0.7---- 0.0------------
1987-06-20 13.8 21.0 2.8- 70.0- 1.0 0.3---- 0.0------------
1987-06-19 10.9 16.4 6.0- 77.5- 3.7 0.3---- 1.0------------
1987-06-18 10.1 16.0 4.5- 80.8- 4.7 1.7---- 3.3------------
1987-06-17 10.0 13.1 8.5- 85.5- 5.7 0.3---- 1.9------------
1987-06-16 17.5 25.0 11.4- 70.5- 7.0 2.0---- 21.0------------
439.9 ms

 

Źródłem pochodzenia danych jest Instytut Meteorologii i Gospodarki Wodnej – Państwowy Instytut Badawczy. Dane Instytutu Meteorologii i Gospodarki Wodnej – Państwowego Instytutu Badawczego zostały przetworzone.

Dane źródłowe można odnaleźć na stronie https://dane.imgw.pl